Time;durP1;ratioP1;P1;durP2;ratioP2;P2;SDS_P1;SDS_P2;PMS_P1;PMS_P2;Temp;Humidity;BMP_temperature;BMP_pressure;BME280_temperature;BME280_humidity;BME280_pressure;Samples;Min_cycle;Max_cycle;Signal;HPM_P1;HPM_P2
2021/11/18 00:00:39;;;;;;;6.57;2.53;;;10.00;96.50;;;;;;5033161;28;20056;-47
2021/11/18 00:03:06;;;;;;;11.00;3.22;;;10.00;96.50;;;;;;5032663;28;20498;-47
2021/11/18 00:05:32;;;;;;;5.47;3.17;;;10.00;96.50;;;;;;5032465;28;20025;-47
2021/11/18 00:07:59;;;;;;;3.92;2.85;;;10.00;96.50;;;;;;5033373;28;20052;-47
2021/11/18 00:10:31;;;;;;;6.82;3.15;;;10.00;96.50;;;;;;5031550;28;20037;-47
2021/11/18 00:12:59;;;;;;;4.88;2.20;;;10.00;96.50;;;;;;5032933;28;20101;-47
2021/11/18 00:15:26;;;;;;;5.00;3.35;;;10.00;96.50;;;;;;5032306;28;20033;-47
2021/11/18 00:18:05;;;;;;;5.57;3.50;;;10.00;96.50;;;;;;5032538;28;20084;-47
2021/11/18 00:20:40;;;;;;;4.80;3.00;;;10.00;96.50;;;;;;5032624;28;20028;-47
2021/11/18 00:23:06;;;;;;;4.45;2.80;;;10.00;96.50;;;;;;5032052;28;20351;-47
2021/11/18 00:25:32;;;;;;;3.65;2.60;;;10.00;96.50;;;;;;5029923;28;20104;-47
2021/11/18 00:27:58;;;;;;;5.38;3.10;;;10.00;96.50;;;;;;5032965;28;20472;-47
2021/11/18 00:30:24;;;;;;;6.18;3.03;;;10.00;96.50;;;;;;5032166;28;20025;-47
2021/11/18 00:32:50;;;;;;;6.18;2.72;;;10.00;96.50;;;;;;5032194;28;20020;-47
2021/11/18 00:35:20;;;;;;;4.93;3.28;;;10.00;96.50;;;;;;5031691;28;20112;-47
2021/11/18 00:37:47;;;;;;;4.95;2.40;;;10.00;96.50;;;;;;5032730;28;20026;-47
2021/11/18 00:40:16;;;;;;;3.95;2.45;;;10.00;96.50;;;;;;5023722;28;20060;-47
2021/11/18 00:42:42;;;;;;;6.43;2.85;;;10.00;96.50;;;;;;5010476;28;20076;-47
2021/11/18 00:45:10;;;;;;;5.60;3.03;;;10.00;96.50;;;;;;5011889;28;20025;-47
2021/11/18 00:47:36;;;;;;;5.35;2.78;;;10.00;96.50;;;;;;5012232;28;20053;-47
2021/11/18 00:50:05;;;;;;;6.63;3.53;;;10.00;96.60;;;;;;5012594;28;20021;-47
2021/11/18 00:52:31;;;;;;;8.40;3.55;;;10.00;96.60;;;;;;5012106;28;20037;-47
2021/11/18 00:54:57;;;;;;;5.78;2.90;;;10.00;96.50;;;;;;5011476;28;20034;-47
2021/11/18 00:57:23;;;;;;;8.93;3.47;;;10.00;96.50;;;;;;5012087;28;20030;-47
2021/11/18 00:59:48;;;;;;;5.35;3.33;;;10.00;96.60;;;;;;5012489;28;20044;-47
2021/11/18 01:02:15;;;;;;;6.93;3.22;;;10.00;96.60;;;;;;5031547;28;20046;-47
2021/11/18 01:04:43;;;;;;;9.10;3.97;;;10.00;96.60;;;;;;5031944;28;20025;-47
2021/11/18 01:07:09;;;;;;;6.65;4.28;;;10.00;96.60;;;;;;5030879;28;20090;-47
2021/11/18 01:09:35;;;;;;;5.10;3.40;;;10.00;96.60;;;;;;5030729;28;20448;-47
2021/11/18 01:12:00;;;;;;;6.75;3.47;;;10.00;96.60;;;;;;5011974;28;20433;-47
2021/11/18 01:14:26;;;;;;;7.72;3.00;;;10.00;96.60;;;;;;5011999;28;20022;-47
2021/11/18 01:16:52;;;;;;;7.70;3.60;;;10.00;96.60;;;;;;5011109;28;20026;-47
2021/11/18 01:19:18;;;;;;;6.90;3.67;;;10.00;96.60;;;;;;5012090;28;20022;-47
2021/11/18 01:21:47;;;;;;;7.43;2.55;;;10.00;96.60;;;;;;5011703;28;20033;-47
2021/11/18 01:24:13;;;;;;;5.53;2.90;;;10.00;96.60;;;;;;5011292;28;20022;-47
2021/11/18 01:26:39;;;;;;;5.13;3.63;;;10.00;96.60;;;;;;5010646;28;20397;-47
2021/11/18 01:29:05;;;;;;;8.82;3.70;;;10.00;96.60;;;;;;5010943;28;20112;-47
2021/11/18 01:31:31;;;;;;;6.85;3.63;;;10.00;96.60;;;;;;5011921;28;20022;-47
2021/11/18 01:33:57;;;;;;;5.72;3.05;;;10.00;96.60;;;;;;5011636;28;20022;-47
2021/11/18 01:36:23;;;;;;;5.75;3.38;;;10.00;96.60;;;;;;5010817;28;20191;-47
2021/11/18 01:38:49;;;;;;;7.15;3.67;;;10.00;96.60;;;;;;5011467;28;20040;-47
2021/11/18 01:41:18;;;;;;;7.47;3.60;;;10.00;96.60;;;;;;5011203;28;20607;-47
2021/11/18 01:43:50;;;;;;;6.67;3.63;;;10.00;96.60;;;;;;5011850;28;20368;-47
2021/11/18 01:46:20;;;;;;;5.75;3.08;;;10.00;96.60;;;;;;5010721;28;20029;-47
2021/11/18 01:48:51;;;;;;;6.07;3.95;;;10.00;96.60;;;;;;5011337;28;20026;-47
2021/11/18 01:51:23;;;;;;;4.40;2.78;;;10.00;96.60;;;;;;5010926;28;20030;-47
2021/11/18 01:53:50;;;;;;;4.55;2.70;;;10.00;96.60;;;;;;5011460;28;20026;-47
2021/11/18 01:56:28;;;;;;;5.80;3.50;;;10.00;96.70;;;;;;5010241;28;20064;-47
2021/11/18 01:58:57;;;;;;;9.38;3.80;;;10.00;96.60;;;;;;5011038;28;20040;-47
2021/11/18 02:01:23;;;;;;;5.22;2.92;;;10.00;96.60;;;;;;5011545;28;20221;-47
2021/11/18 02:03:50;;;;;;;9.45;3.70;;;10.00;96.70;;;;;;5010686;28;20053;-47
2021/11/18 02:06:19;;;;;;;6.88;2.90;;;10.00;96.70;;;;;;5019641;28;20025;-47
2021/11/18 02:08:45;;;;;;;7.35;3.28;;;10.00;96.70;;;;;;5030831;28;20104;-47
2021/11/18 02:11:35;;;;;;;3.83;2.65;;;10.00;96.60;;;;;;5020880;28;20113;-47
2021/11/18 02:14:02;;;;;;;4.90;3.03;;;10.00;96.60;;;;;;5011250;28;20022;-47
2021/11/18 02:16:29;;;;;;;5.40;2.88;;;10.00;96.60;;;;;;5009883;28;20034;-47
2021/11/18 02:18:54;;;;;;;7.05;3.40;;;10.00;96.60;;;;;;5011476;28;20033;-47
2021/11/18 02:21:21;;;;;;;4.50;2.42;;;10.10;96.60;;;;;;5011074;28;20026;-47
2021/11/18 02:23:59;;;;;;;5.97;3.03;;;10.00;96.60;;;;;;5010661;28;20531;-47
2021/11/18 02:26:27;;;;;;;5.45;3.20;;;10.00;96.70;;;;;;5010185;28;20041;-47
2021/11/18 02:28:55;;;;;;;3.92;2.88;;;10.00;96.60;;;;;;5010549;28;20030;-47
2021/11/18 02:31:26;;;;;;;3.67;2.47;;;10.00;96.60;;;;;;5011203;28;20100;-47
2021/11/18 02:33:52;;;;;;;9.48;3.53;;;10.00;96.70;;;;;;5010687;28;20065;-47
2021/11/18 02:36:18;;;;;;;4.88;2.97;;;10.00;96.60;;;;;;5010478;28;20118;-47
2021/11/18 02:38:45;;;;;;;5.20;3.38;;;10.00;96.60;;;;;;5010535;28;20353;-47
2021/11/18 02:41:12;;;;;;;4.90;2.35;;;10.00;96.60;;;;;;5012636;28;20077;-47
2021/11/18 02:43:38;;;;;;;8.32;3.50;;;10.10;96.70;;;;;;5014507;28;20076;-47
2021/11/18 02:46:04;;;;;;;6.32;3.20;;;10.10;96.70;;;;;;5014228;28;20181;-47
2021/11/18 02:48:30;;;;;;;5.70;3.03;;;10.00;97.00;;;;;;5014023;28;20456;-47
2021/11/18 02:50:59;;;;;;;7.57;3.45;;;10.00;96.70;;;;;;5014886;28;20058;-47
2021/11/18 02:53:26;;;;;;;6.82;3.13;;;10.00;96.70;;;;;;5014444;28;20029;-47
2021/11/18 02:55:53;;;;;;;7.10;3.67;;;10.00;96.70;;;;;;5017055;28;20030;-47
2021/11/18 02:58:21;;;;;;;7.38;3.15;;;10.00;96.70;;;;;;5033968;28;20038;-47
2021/11/18 03:00:52;;;;;;;5.97;3.33;;;10.10;96.70;;;;;;5034325;28;20022;-47
2021/11/18 03:03:18;;;;;;;4.63;3.10;;;10.00;96.70;;;;;;5034433;28;20038;-47
2021/11/18 03:05:45;;;;;;;8.23;3.80;;;10.00;96.70;;;;;;5033319;28;20033;-47
2021/11/18 03:08:11;;;;;;;7.63;3.75;;;10.10;96.70;;;;;;5033738;28;20109;-47
2021/11/18 03:10:37;;;;;;;7.00;3.92;;;10.00;96.70;;;;;;5033181;28;20551;-47
2021/11/18 03:13:03;;;;;;;6.07;3.42;;;10.10;96.70;;;;;;5033970;28;20503;-47
2021/11/18 03:15:28;;;;;;;7.68;3.40;;;10.00;96.60;;;;;;5033035;28;20034;-47
2021/11/18 03:17:54;;;;;;;7.00;3.45;;;10.10;96.70;;;;;;5032540;28;20133;-47
2021/11/18 03:20:22;;;;;;;11.18;4.57;;;10.10;96.70;;;;;;5033613;28;20372;-47
2021/11/18 03:22:48;;;;;;;7.80;3.63;;;10.00;96.60;;;;;;5033183;28;20388;-47
2021/11/18 03:25:16;;;;;;;6.07;3.35;;;10.10;96.70;;;;;;5032660;28;20392;-47
2021/11/18 03:27:43;;;;;;;8.98;3.58;;;10.10;96.70;;;;;;5032429;28;20112;-47
2021/11/18 03:30:12;;;;;;;7.20;3.55;;;10.00;96.70;;;;;;5033784;28;20017;-47
2021/11/18 03:32:37;;;;;;;9.73;4.10;;;10.00;96.70;;;;;;5033455;28;20360;-47
2021/11/18 03:35:05;;;;;;;7.18;3.22;;;10.00;96.70;;;;;;5032594;28;20022;-47
2021/11/18 03:37:31;;;;;;;9.75;3.15;;;10.00;96.70;;;;;;5033609;28;20029;-47
2021/11/18 03:39:57;;;;;;;7.63;4.18;;;10.00;96.70;;;;;;5033820;28;20075;-47
2021/11/18 03:42:22;;;;;;;9.70;3.33;;;10.10;96.70;;;;;;5027866;28;20380;-47
2021/11/18 03:44:48;;;;;;;5.43;3.53;;;10.10;96.70;;;;;;5031883;28;20044;-47
2021/11/18 03:47:15;;;;;;;9.45;3.38;;;10.00;96.70;;;;;;5032663;28;20028;-47
2021/11/18 03:49:41;;;;;;;8.63;3.85;;;10.00;96.70;;;;;;5033388;28;20031;-47
2021/11/18 03:52:10;;;;;;;6.20;3.22;;;10.10;96.70;;;;;;5032525;28;20112;-47
2021/11/18 03:54:38;;;;;;;7.80;4.05;;;10.10;96.70;;;;;;5033092;28;20029;-47
2021/11/18 03:57:05;;;;;;;7.10;3.55;;;10.10;96.70;;;;;;5031379;28;20030;-47
2021/11/18 03:59:34;;;;;;;7.57;3.90;;;10.10;96.70;;;;;;5032904;28;20072;-47
2021/11/18 04:02:00;;;;;;;6.63;3.60;;;10.10;96.70;;;;;;5033274;28;20076;-47
2021/11/18 04:04:34;;;;;;;5.32;3.30;;;10.10;96.70;;;;;;5032717;28;20026;-47
2021/11/18 04:06:59;;;;;;;6.93;3.65;;;10.00;96.70;;;;;;5032172;28;20518;-47
2021/11/18 04:09:26;;;;;;;6.35;3.20;;;10.10;96.70;;;;;;5032698;28;20069;-47
2021/11/18 04:11:54;;;;;;;7.22;3.33;;;10.10;96.70;;;;;;5031952;28;20124;-47
2021/11/18 04:14:20;;;;;;;7.68;3.28;;;10.00;96.70;;;;;;5032329;28;20370;-47
2021/11/18 04:16:45;;;;;;;7.97;3.58;;;10.10;96.70;;;;;;5032285;28;20037;-47
2021/11/18 04:19:13;;;;;;;11.40;3.55;;;10.10;96.70;;;;;;5032666;28;20018;-47
2021/11/18 04:21:41;;;;;;;9.63;3.42;;;10.00;96.70;;;;;;5032610;28;20444;-47
2021/11/18 04:24:09;;;;;;;7.47;3.25;;;10.00;96.70;;;;;;5032274;28;20022;-47
2021/11/18 04:26:35;;;;;;;7.70;4.20;;;10.10;97.10;;;;;;5030831;28;20040;-47
2021/11/18 04:29:01;;;;;;;8.27;3.70;;;10.10;96.80;;;;;;5032507;28;20021;-47
2021/11/18 04:31:30;;;;;;;5.38;3.22;;;10.10;96.70;;;;;;5032782;28;20137;-47
2021/11/18 04:33:57;;;;;;;8.63;3.58;;;10.10;96.70;;;;;;5032459;28;20059;-47
2021/11/18 04:36:25;;;;;;;6.32;3.63;;;10.10;96.70;;;;;;5031555;28;20014;-47
2021/11/18 04:38:52;;;;;;;9.52;3.85;;;10.00;96.70;;;;;;5032193;28;20104;-47
2021/11/18 04:41:20;;;;;;;7.80;3.75;;;10.10;96.70;;;;;;5031777;28;20416;-47
2021/11/18 04:43:47;;;;;;;8.35;3.63;;;10.10;96.80;;;;;;5032227;28;20160;-47
2021/11/18 04:46:13;;;;;;;8.18;4.07;;;10.10;96.80;;;;;;5031506;28;20022;-47
2021/11/18 04:48:40;;;;;;;4.45;2.63;;;10.10;96.80;;;;;;5032029;28;20028;-47
2021/11/18 04:51:09;;;;;;;4.95;3.05;;;10.00;96.70;;;;;;5031784;28;20321;-47
2021/11/18 04:53:36;;;;;;;6.80;3.45;;;10.00;96.80;;;;;;5032276;28;20044;-47
2021/11/18 04:56:03;;;;;;;6.68;3.33;;;10.10;96.80;;;;;;5031713;28;20391;-47
2021/11/18 04:58:30;;;;;;;6.20;3.13;;;10.10;96.80;;;;;;5030806;28;20040;-47
2021/11/18 05:00:56;;;;;;;7.10;3.47;;;10.10;96.80;;;;;;5030637;28;20029;-47
2021/11/18 05:03:25;;;;;;;15.05;4.32;;;10.10;96.80;;;;;;5031050;28;20459;-47
2021/11/18 05:05:50;;;;;;;9.70;4.15;;;10.10;96.80;;;;;;5030243;28;20029;-47
2021/11/18 05:08:17;;;;;;;11.50;4.25;;;10.00;96.70;;;;;;5032111;28;20033;-47
2021/11/18 05:10:45;;;;;;;9.02;4.10;;;10.00;96.70;;;;;;5031471;28;20092;-47
2021/11/18 05:13:11;;;;;;;8.43;3.80;;;10.10;96.80;;;;;;5018134;28;20026;-47
2021/11/18 05:15:39;;;;;;;10.18;3.78;;;10.10;96.70;;;;;;5011113;28;20069;-47
2021/11/18 05:18:06;;;;;;;5.20;3.17;;;10.10;96.80;;;;;;5011972;28;20784;-47
2021/11/18 05:20:33;;;;;;;7.75;3.92;;;10.10;96.80;;;;;;5011567;28;20034;-47
2021/11/18 05:22:59;;;;;;;13.50;3.88;;;10.00;96.70;;;;;;5011677;28;20083;-47
2021/11/18 05:25:27;;;;;;;7.68;3.97;;;10.10;96.80;;;;;;5010953;28;20357;-47
2021/11/18 05:27:53;;;;;;;9.02;4.45;;;10.10;96.80;;;;;;5011227;28;20041;-47
2021/11/18 05:30:23;;;;;;;10.27;4.30;;;10.10;96.80;;;;;;5023555;28;20025;-47
2021/11/18 05:32:49;;;;;;;7.97;3.88;;;10.10;96.80;;;;;;5025534;28;20025;-47
2021/11/18 05:35:15;;;;;;;7.63;3.85;;;10.00;96.80;;;;;;5029041;28;20033;-47
2021/11/18 05:37:41;;;;;;;7.28;4.63;;;10.00;96.80;;;;;;5030842;28;20053;-47
2021/11/18 05:40:08;;;;;;;7.78;4.03;;;10.10;96.80;;;;;;5031234;28;20026;-48
2021/11/18 05:42:36;;;;;;;7.70;3.67;;;10.10;96.80;;;;;;5024049;28;20563;-47
2021/11/18 05:45:04;;;;;;;6.80;4.13;;;10.00;96.70;;;;;;5009505;28;20052;-48
2021/11/18 05:47:30;;;;;;;10.63;4.22;;;10.10;96.80;;;;;;5011432;28;20286;-48
2021/11/18 05:49:55;;;;;;;8.38;4.28;;;10.10;96.80;;;;;;5011082;28;20029;-47
2021/11/18 05:52:22;;;;;;;8.18;4.18;;;10.10;96.80;;;;;;5011425;28;20031;-47
2021/11/18 05:54:48;;;;;;;7.45;3.80;;;10.10;96.80;;;;;;5010557;28;20054;-48
2021/11/18 05:57:13;;;;;;;8.55;4.38;;;10.10;96.80;;;;;;5010404;28;20022;-48
2021/11/18 05:59:39;;;;;;;7.65;3.53;;;10.10;96.80;;;;;;5011248;28;20044;-47
2021/11/18 06:02:05;;;;;;;7.70;3.95;;;10.10;96.80;;;;;;5011210;28;20472;-48
2021/11/18 06:04:31;;;;;;;7.00;3.20;;;10.10;96.80;;;;;;5011363;28;20080;-48
2021/11/18 06:06:56;;;;;;;13.38;4.22;;;10.00;96.80;;;;;;5025199;28;20121;-48
2021/11/18 06:09:22;;;;;;;9.55;3.97;;;10.10;96.80;;;;;;5030798;28;20029;-47
2021/11/18 06:11:47;;;;;;;6.93;3.17;;;10.10;96.80;;;;;;5031193;28;20515;-47
2021/11/18 06:14:14;;;;;;;7.38;3.33;;;10.10;96.80;;;;;;5012509;28;20064;-47
2021/11/18 06:16:40;;;;;;;6.97;3.72;;;10.10;96.80;;;;;;5010138;28;20113;-47
2021/11/18 06:19:06;;;;;;;5.85;3.63;;;10.00;96.70;;;;;;5010804;28;20118;-48
2021/11/18 06:21:35;;;;;;;11.77;4.65;;;10.10;96.80;;;;;;5010915;28;20033;-47
2021/11/18 06:24:02;;;;;;;7.68;4.10;;;10.00;96.80;;;;;;5011383;28;20148;-48
2021/11/18 06:26:28;;;;;;;9.07;3.35;;;10.10;96.80;;;;;;5010310;28;20080;-47
2021/11/18 06:28:55;;;;;;;8.18;3.42;;;10.00;97.10;;;;;;5010508;28;20033;-48
2021/11/18 06:31:21;;;;;;;6.38;3.42;;;10.00;96.60;;;;;;4993066;28;20528;-48
2021/11/18 06:33:47;;;;;;;5.60;3.17;;;10.00;96.60;;;;;;5011173;28;20117;-48
2021/11/18 06:36:13;;;;;;;6.72;2.90;;;10.00;96.70;;;;;;5010109;28;20026;-48
2021/11/18 06:38:41;;;;;;;8.63;4.57;;;10.00;96.70;;;;;;5010772;28;20445;-47
2021/11/18 06:41:07;;;;;;;6.30;3.97;;;10.00;96.70;;;;;;5010799;28;20030;-48
2021/11/18 06:43:33;;;;;;;10.10;3.83;;;10.00;96.70;;;;;;5010805;28;20062;-48
2021/11/18 06:45:59;;;;;;;7.63;4.45;;;10.00;96.70;;;;;;5009951;28;20045;-48
2021/11/18 06:48:30;;;;;;;11.63;4.80;;;10.00;96.70;;;;;;5010547;28;20092;-48
2021/11/18 06:51:01;;;;;;;10.13;5.20;;;10.00;96.70;;;;;;5010758;28;20049;-48
2021/11/18 06:53:28;;;;;;;7.75;4.55;;;10.00;96.70;;;;;;5010574;28;20033;-47
2021/11/18 06:55:54;;;;;;;8.63;4.38;;;10.00;96.70;;;;;;5008715;28;20074;-48
2021/11/18 06:58:20;;;;;;;8.85;4.90;;;10.00;96.70;;;;;;5010200;28;20441;-48
2021/11/18 07:00:46;;;;;;;8.27;4.53;;;10.00;96.70;;;;;;5010914;28;20041;-47
2021/11/18 07:03:12;;;;;;;9.40;3.85;;;10.00;96.70;;;;;;5010617;28;20043;-47
2021/11/18 07:05:39;;;;;;;7.68;4.18;;;10.00;96.70;;;;;;5014134;28;20524;-48
2021/11/18 07:08:06;;;;;;;7.15;4.13;;;10.00;96.80;;;;;;5030519;28;20368;-48
2021/11/18 07:10:33;;;;;;;7.85;3.85;;;10.00;96.80;;;;;;5029879;28;20025;-47
2021/11/18 07:12:59;;;;;;;9.77;3.75;;;10.00;96.80;;;;;;5026865;28;20529;-47
2021/11/18 07:15:26;;;;;;;8.45;4.18;;;10.00;96.80;;;;;;5009641;28;20124;-48
2021/11/18 07:17:57;;;;;;;7.43;3.85;;;10.00;96.80;;;;;;5010675;28;20121;-48
2021/11/18 07:20:25;;;;;;;13.32;4.15;;;10.00;96.80;;;;;;5010505;28;20387;-47
2021/11/18 07:22:51;;;;;;;8.23;3.72;;;10.00;96.80;;;;;;5010385;28;20030;-48
2021/11/18 07:25:24;;;;;;;9.02;3.88;;;10.00;96.80;;;;;;5009046;28;20053;-48
2021/11/18 07:27:51;;;;;;;5.10;2.70;;;10.00;96.80;;;;;;5012104;28;20030;-47
2021/11/18 07:30:18;;;;;;;13.13;3.97;;;10.00;96.80;;;;;;5012740;28;20165;-47
2021/11/18 07:32:44;;;;;;;6.07;3.20;;;10.00;96.80;;;;;;5014442;28;20248;-47
2021/11/18 07:35:11;;;;;;;7.03;3.70;;;10.00;96.90;;;;;;5013001;28;20029;-47
2021/11/18 07:37:37;;;;;;;7.38;3.22;;;10.00;96.90;;;;;;5013448;28;20471;-47
2021/11/18 07:40:05;;;;;;;6.22;3.00;;;10.00;96.90;;;;;;5012361;28;20029;-47
2021/11/18 07:42:32;;;;;;;6.88;3.20;;;10.10;96.90;;;;;;5013835;28;20113;-47
2021/11/18 07:44:58;;;;;;;6.05;3.08;;;10.10;96.90;;;;;;5013118;28;20441;-48
2021/11/18 07:47:24;;;;;;;7.60;3.60;;;10.10;97.00;;;;;;5013260;28;20371;-47
2021/11/18 07:49:49;;;;;;;9.63;4.32;;;10.00;96.90;;;;;;5013394;28;20105;-47
2021/11/18 07:52:16;;;;;;;8.88;4.03;;;10.00;96.90;;;;;;5013225;28;20041;-47
2021/11/18 07:54:41;;;;;;;7.75;3.95;;;10.10;97.00;;;;;;5013326;28;20117;-47
2021/11/18 07:57:07;;;;;;;8.30;3.90;;;10.10;97.00;;;;;;5012733;28;20061;-47
2021/11/18 07:59:33;;;;;;;11.32;3.95;;;10.00;96.90;;;;;;5012824;28;20402;-47
2021/11/18 08:01:59;;;;;;;5.85;3.28;;;10.10;97.00;;;;;;5013381;28;20042;-47
2021/11/18 08:04:25;;;;;;;6.85;3.60;;;10.00;97.00;;;;;;5013450;28;20025;-47
2021/11/18 08:06:51;;;;;;;8.27;3.20;;;10.00;97.00;;;;;;5026278;28;20121;-47
2021/11/18 08:09:17;;;;;;;6.22;3.47;;;10.00;97.00;;;;;;5033008;28;20108;-47
2021/11/18 08:11:51;;;;;;;5.70;2.97;;;10.10;97.00;;;;;;5032844;28;20075;-47
2021/11/18 08:14:17;;;;;;;5.78;3.38;;;10.10;97.00;;;;;;5022698;28;20116;-47
2021/11/18 08:16:44;;;;;;;4.47;2.95;;;10.10;97.10;;;;;;5012455;28;20026;-47
2021/11/18 08:19:10;;;;;;;4.57;2.88;;;10.10;97.00;;;;;;5012837;28;20025;-47
2021/11/18 08:21:36;;;;;;;8.10;3.20;;;10.10;97.10;;;;;;5012706;28;20453;-47
2021/11/18 08:24:05;;;;;;;6.80;4.13;;;10.10;97.10;;;;;;5013055;28;20109;-47
2021/11/18 08:26:33;;;;;;;14.27;4.10;;;10.10;97.10;;;;;;5012365;28;20033;-47
2021/11/18 08:28:59;;;;;;;5.93;3.33;;;10.10;97.10;;;;;;5012700;28;20331;-47
2021/11/18 08:31:25;;;;;;;8.07;3.95;;;10.10;97.10;;;;;;5012456;28;20033;-47
2021/11/18 08:33:53;;;;;;;7.78;4.53;;;10.10;97.20;;;;;;5012448;28;20053;-48
2021/11/18 08:36:20;;;;;;;8.90;4.28;;;10.10;97.20;;;;;;5012470;28;20291;-47
2021/11/18 08:38:46;;;;;;;5.90;3.70;;;10.10;97.20;;;;;;5012604;28;20030;-47
2021/11/18 08:41:13;;;;;;;13.75;5.18;;;10.10;97.20;;;;;;5011221;28;20030;-48
2021/11/18 08:43:41;;;;;;;6.88;3.90;;;10.10;97.30;;;;;;5012190;28;20207;-48
2021/11/18 08:46:08;;;;;;;12.95;5.28;;;10.20;97.30;;;;;;5011533;28;20369;-48
2021/11/18 08:48:35;;;;;;;7.03;3.60;;;10.20;97.40;;;;;;5012807;28;20030;-47
2021/11/18 08:51:01;;;;;;;4.00;2.60;;;10.20;97.40;;;;;;5012244;28;20026;-47
2021/11/18 08:53:30;;;;;;;9.82;4.63;;;10.20;97.40;;;;;;5012353;28;20034;-48
2021/11/18 08:55:57;;;;;;;2.53;1.88;;;10.20;97.50;;;;;;5011368;28;20052;-48
2021/11/18 08:58:26;;;;;;;4.30;2.13;;;10.20;97.50;;;;;;5011947;28;20100;-47
2021/11/18 09:00:56;;;;;;;4.70;2.28;;;10.10;97.50;;;;;;5012133;28;20177;-47
2021/11/18 09:03:24;;;;;;;4.57;2.22;;;10.10;97.60;;;;;;5012003;28;20373;-47
2021/11/18 09:05:51;;;;;;;3.22;2.10;;;10.20;97.60;;;;;;5017213;28;20100;-48
2021/11/18 09:08:18;;;;;;;3.42;2.47;;;10.20;97.60;;;;;;5032251;28;20133;-47
2021/11/18 09:10:45;;;;;;;3.83;2.38;;;10.20;97.60;;;;;;5031674;28;20109;-47
2021/11/18 09:13:11;;;;;;;4.50;2.30;;;10.20;97.70;;;;;;5031518;28;20025;-47
2021/11/18 09:15:37;;;;;;;4.13;2.05;;;10.20;97.80;;;;;;5013941;28;20033;-47
2021/11/18 09:18:05;;;;;;;3.35;2.17;;;10.20;97.80;;;;;;5012316;28;20018;-47
2021/11/18 09:20:32;;;;;;;5.05;2.38;;;10.20;97.80;;;;;;5012258;28;20104;-48
2021/11/18 09:22:58;;;;;;;3.63;1.98;;;10.20;97.80;;;;;;5011711;28;20026;-48
2021/11/18 09:25:27;;;;;;;4.63;2.15;;;10.20;97.90;;;;;;5010991;28;20306;-47
2021/11/18 09:27:54;;;;;;;2.10;1.70;;;10.20;97.90;;;;;;5011818;28;20048;-47
2021/11/18 09:30:26;;;;;;;3.08;1.85;;;10.30;98.00;;;;;;5011479;28;20353;-48
2021/11/18 09:32:54;;;;;;;3.05;2.08;;;10.20;97.90;;;;;;5011520;28;20041;-47
2021/11/18 09:35:27;;;;;;;3.47;2.10;;;10.30;98.00;;;;;;5011175;28;20038;-47
2021/11/18 09:37:53;;;;;;;4.60;1.88;;;10.30;98.10;;;;;;5011415;28;20092;-48
2021/11/18 09:40:24;;;;;;;3.53;2.03;;;10.30;98.10;;;;;;5011020;28;20445;-47
2021/11/18 09:43:15;;;;;;;2.80;1.70;;;10.30;98.10;;;;;;5011304;28;20516;-47
2021/11/18 09:45:50;;;;;;;2.67;1.65;;;10.30;98.10;;;;;;4969694;28;20060;-47
2021/11/18 09:48:37;;;;;;;2.53;1.58;;;10.30;98.20;;;;;;5011061;28;20029;-48
2021/11/18 09:51:40;;;;;;;3.63;1.50;;;10.30;98.10;;;;;;5011025;28;20440;-48
2021/11/18 09:54:31;;;;;;;3.38;1.58;;;10.30;98.10;;;;;;5012017;28;20066;-48
2021/11/18 09:57:23;;;;;;;2.35;1.27;;;10.30;98.10;;;;;;4963896;28;20082;-48
2021/11/18 10:00:04;;;;;;;2.22;1.42;;;10.30;98.20;;;;;;5012708;28;20045;-47
2021/11/18 10:02:52;;;;;;;3.47;1.67;;;10.30;98.10;;;;;;5031037;28;20052;-48
2021/11/18 10:05:31;;;;;;;2.63;1.65;;;10.30;98.10;;;;;;5017936;28;20034;-47
2021/11/18 10:08:01;;;;;;;2.50;2.05;;;10.30;98.10;;;;;;5030931;28;20083;-48
2021/11/18 10:10:30;;;;;;;;;;;10.30;98.10;;;;;;5031413;28;20048;-47
2021/11/18 10:13:08;;;;;;;2.15;1.10;;;10.40;98.10;;;;;;5021279;28;19921;-47
2021/11/18 10:15:59;;;;;;;2.47;1.10;;;10.30;98.10;;;;;;5021922;28;20026;-48
2021/11/18 10:18:29;;;;;;;5.45;1.52;;;10.40;98.00;;;;;;5011580;28;20037;-47
2021/11/18 10:21:02;;;;;;;2.22;1.50;;;10.40;98.10;;;;;;5010982;28;20679;-48
2021/11/18 10:23:28;;;;;;;3.45;1.77;;;10.40;98.10;;;;;;5010725;28;20054;-47
2021/11/18 10:26:05;;;;;;;1.88;1.38;;;10.40;98.10;;;;;;5009465;28;20106;-47
2021/11/18 10:29:07;;;;;;;1.27;1.17;;;10.40;98.10;;;;;;5010895;28;20473;-48
2021/11/18 10:31:49;;;;;;;2.03;1.35;;;10.40;98.10;;;;;;4976175;28;20044;-48
2021/11/18 10:34:51;;;;;;;4.90;2.00;;;10.40;98.00;;;;;;5010257;28;20478;-48
2021/11/18 10:37:26;;;;;;;3.10;1.80;;;10.40;98.10;;;;;;5000396;28;20048;-47
2021/11/18 10:40:00;;;;;;;2.45;1.70;;;10.40;98.10;;;;;;5011171;28;20461;-48
2021/11/18 10:42:47;;;;;;;4.38;2.08;;;10.40;98.00;;;;;;5010598;28;20041;-48
2021/11/18 10:45:25;;;;;;;5.53;2.60;;;10.40;98.00;;;;;;5016309;28;20030;-48
2021/11/18 10:47:50;;;;;;;7.22;3.25;;;10.40;98.00;;;;;;5030786;28;20021;-48
2021/11/18 10:50:37;;;;;;;5.38;3.13;;;10.40;98.00;;;;;;5030479;28;20028;-48
2021/11/18 10:53:06;;;;;;;9.38;3.58;;;10.40;98.00;;;;;;5030009;28;20433;-48
2021/11/18 10:55:40;;;;;;;7.20;3.63;;;10.40;98.00;;;;;;5029653;28;20018;-47
2021/11/18 10:58:10;;;;;;;7.57;3.05;;;10.40;98.00;;;;;;5030406;28;20033;-48
2021/11/18 11:00:41;;;;;;;7.20;4.43;;;10.40;98.00;;;;;;5029591;28;20041;-48
2021/11/18 11:03:34;;;;;;;7.20;3.38;;;10.40;98.10;;;;;;5033781;28;20061;-48
2021/11/18 11:06:16;;;;;;;8.07;3.45;;;10.40;98.00;;;;;;5033501;28;20025;-48
2021/11/18 11:08:52;;;;;;;11.25;5.15;;;10.40;98.00;;;;;;5034434;28;20017;-48
2021/11/18 11:11:42;;;;;;;12.43;4.47;;;10.50;98.00;;;;;;5034396;28;20025;-47
2021/11/18 11:14:19;;;;;;;6.25;2.95;;;10.40;98.00;;;;;;5033788;28;20333;-47
2021/11/18 11:16:51;;;;;;;5.90;3.85;;;10.40;98.00;;;;;;5032243;28;20037;-48
2021/11/18 11:20:01;;;;;;;8.95;4.45;;;10.40;98.00;;;;;;5034045;28;20041;-47
2021/11/18 11:23:07;;;;;;;5.97;3.60;;;10.50;98.10;;;;;;5013441;28;20115;-48
2021/11/18 11:26:00;;;;;;;6.85;3.33;;;10.50;98.10;;;;;;5033198;28;20026;-48
2021/11/18 11:28:30;;;;;;;9.23;3.30;;;10.50;98.10;;;;;;5033419;28;20041;-48
2021/11/18 11:31:14;;;;;;;5.10;3.90;;;10.50;98.00;;;;;;5032666;28;20490;-48
2021/11/18 11:33:59;;;;;;;8.70;3.97;;;10.50;98.20;;;;;;5033729;28;20026;-48
2021/11/18 11:36:57;;;;;;;6.68;3.20;;;10.50;98.20;;;;;;5032899;28;20107;-48
2021/11/18 11:39:51;;;;;;;5.28;3.05;;;10.50;98.10;;;;;;5029399;28;20033;-48
2021/11/18 11:42:35;;;;;;;6.05;2.88;;;10.50;98.10;;;;;;5023797;28;20049;-48
2021/11/18 11:45:35;;;;;;;6.93;3.45;;;10.50;98.10;;;;;;5031753;28;20353;-48
2021/11/18 11:48:25;;;;;;;5.57;3.53;;;10.50;98.10;;;;;;5033458;28;20070;-48
2021/11/18 11:51:18;;;;;;;4.43;2.87;;;10.50;98.10;;;;;;5033550;28;20029;-48
2021/11/18 11:54:34;;;;;;;9.93;4.18;;;10.50;98.10;;;;;;5033276;28;20399;-48
2021/11/18 11:57:28;;;;;;;5.05;3.13;;;10.50;98.00;;;;;;4998495;28;20036;-48
2021/11/18 12:00:06;;;;;;;9.00;3.83;;;10.50;98.10;;;;;;5033056;28;20431;-47
2021/11/18 12:02:51;;;;;;;4.10;2.83;;;10.50;98.10;;;;;;5033140;28;20072;-48
2021/11/18 12:05:45;;;;;;;8.77;3.58;;;10.50;98.00;;;;;;5032401;28;20041;-48
2021/11/18 12:08:34;;;;;;;6.00;3.00;;;10.50;98.00;;;;;;5032996;28;20401;-48
2021/11/18 12:11:11;;;;;;;7.00;3.67;;;10.50;98.10;;;;;;5033146;28;20022;-48
2021/11/18 12:14:03;;;;;;;4.55;2.60;;;10.50;98.10;;;;;;5032232;28;20463;-47
2021/11/18 12:16:50;;;;;;;4.93;3.08;;;10.50;98.10;;;;;;5031332;28;20033;-48
2021/11/18 12:19:42;;;;;;;7.25;2.75;;;10.50;98.10;;;;;;5032831;28;20037;-48
2021/11/18 12:22:29;;;;;;;6.72;3.15;;;10.50;98.10;;;;;;5018240;28;20112;-48
2021/11/18 12:25:04;;;;;;;6.13;3.38;;;10.50;98.00;;;;;;5032033;28;20419;-47
2021/11/18 12:27:32;;;;;;;7.88;3.33;;;10.50;98.00;;;;;;5033128;28;20036;-48
2021/11/18 12:30:33;;;;;;;4.75;3.15;;;10.50;98.10;;;;;;5032414;28;20401;-47
2021/11/18 12:33:09;;;;;;;6.50;3.25;;;10.50;98.00;;;;;;4951290;29;20501;-47
2021/11/18 12:36:03;;;;;;;3.80;2.30;;;10.50;98.00;;;;;;4950979;29;20047;-48
2021/11/18 12:38:40;;;;;;;8.00;3.22;;;10.50;98.40;;;;;;4951697;29;20024;-48
2021/11/18 12:41:36;;;;;;;4.53;2.78;;;10.50;98.00;;;;;;4951527;29;20043;-48
2021/11/18 12:44:22;;;;;;;4.50;2.80;;;10.50;98.00;;;;;;4951014;29;20603;-47
2021/11/18 12:47:07;;;;;;;6.10;3.35;;;10.50;98.00;;;;;;4949924;29;20047;-47
2021/11/18 12:49:51;;;;;;;4.72;2.90;;;10.50;98.00;;;;;;4951327;29;20027;-48
2021/11/18 12:52:17;;;;;;;7.20;2.90;;;10.50;98.10;;;;;;4951425;29;20077;-47
2021/11/18 12:55:04;;;;;;;7.97;3.17;;;10.50;98.00;;;;;;4951062;29;20685;-48
2021/11/18 12:57:38;;;;;;;5.72;2.97;;;10.60;98.00;;;;;;4951239;29;20051;-48
2021/11/18 13:00:20;;;;;;;6.28;3.15;;;10.60;98.10;;;;;;4950485;29;20043;-48
2021/11/18 13:03:05;;;;;;;7.57;3.28;;;10.50;98.10;;;;;;4950411;29;20088;-47
2021/11/18 13:05:30;;;;;;;4.70;2.72;;;10.50;98.00;;;;;;4950171;29;20034;-47